createdAt,value
2019-01-13T00:00:21.965Z,99464.64
2019-01-13T00:02:48.041Z,99467.97
2019-01-13T00:05:14.097Z,99463.67
2019-01-13T00:07:40.522Z,99463.23
2019-01-13T00:10:06.795Z,99467.34
2019-01-13T00:12:35.647Z,99458.83
2019-01-13T00:15:02.922Z,99464.69
2019-01-13T00:17:28.880Z,99462.13
2019-01-13T00:19:54.858Z,99464.38
2019-01-13T00:22:20.880Z,99466.06
2019-01-13T00:24:46.864Z,99450.14
2019-01-13T00:27:13.120Z,99443.02
2019-01-13T00:29:42.098Z,99446.45
2019-01-13T00:32:08.136Z,99446.06
2019-01-13T00:34:34.290Z,99443.16
2019-01-13T00:37:00.319Z,99453.46
2019-01-13T00:39:26.266Z,99450.13
2019-01-13T00:41:52.219Z,99451.09
2019-01-13T00:44:18.916Z,99443.15
2019-01-13T00:46:47.067Z,99441.12
2019-01-13T00:49:14.425Z,99437.58
2019-01-13T00:51:40.404Z,99429.64
2019-01-13T00:54:06.384Z,99436.17
2019-01-13T00:56:32.343Z,99434.04
2019-01-13T00:58:58.393Z,99427.28
2019-01-13T01:01:24.372Z,99425.72
2019-01-13T01:03:50.560Z,99425.86
2019-01-13T01:06:16.660Z,99422.14
2019-01-13T01:08:43.117Z,99416.32
2019-01-13T01:11:09.082Z,99411.20
2019-01-13T01:13:35.270Z,99413.28
2019-01-13T01:16:01.222Z,99417.34
2019-01-13T01:18:27.321Z,99409.56
2019-01-13T01:20:53.370Z,99406.80
2019-01-13T01:23:19.547Z,99402.44
2019-01-13T01:25:46.423Z,99416.59
2019-01-13T01:28:12.445Z,99414.74
2019-01-13T01:30:38.424Z,99410.85
2019-01-13T01:33:04.681Z,99406.61
2019-01-13T01:35:32.104Z,99404.56
2019-01-13T01:37:58.123Z,99401.57
2019-01-13T01:40:24.376Z,99397.80
2019-01-13T01:42:50.397Z,99398.17
2019-01-13T01:45:18.275Z,99392.64
2019-01-13T01:47:44.331Z,99395.02
2019-01-13T01:50:11.725Z,99384.85
2019-01-13T01:52:37.991Z,99391.14
2019-01-13T01:55:06.855Z,99387.37
2019-01-13T01:57:32.854Z,99384.85
2019-01-13T01:59:58.838Z,99385.88
2019-01-13T02:02:24.813Z,99383.89
2019-01-13T02:04:51.227Z,99376.77
2019-01-13T02:07:18.789Z,99376.04
2019-01-13T02:09:44.755Z,99369.07
2019-01-13T02:12:11.072Z,99359.64
2019-01-13T02:14:37.052Z,99358.14
2019-01-13T02:17:03.012Z,99363.18
2019-01-13T02:19:30.907Z,99366.08
2019-01-13T02:21:56.947Z,99361.86
2019-01-13T02:24:23.209Z,99362.59
2019-01-13T02:26:50.326Z,99354.98
2019-01-13T02:29:16.283Z,99348.16
2019-01-13T02:31:42.242Z,99342.69
2019-01-13T02:34:08.346Z,99351.94
2019-01-13T02:36:34.925Z,99350.77
2019-01-13T02:39:00.902Z,99341.20
2019-01-13T02:41:27.405Z,99342.16
2019-01-13T02:43:53.377Z,99339.41
2019-01-13T02:46:19.329Z,99330.16
2019-01-13T02:48:45.972Z,99333.41
2019-01-13T02:51:12.071Z,99326.77
2019-01-13T02:53:40.466Z,99327.06
2019-01-13T02:56:06.505Z,99321.88
2019-01-13T02:58:33.150Z,99322.75
2019-01-13T03:01:01.063Z,99321.44
2019-01-13T03:03:27.255Z,99328.98
2019-01-13T03:05:53.217Z,99329.05
2019-01-13T03:08:19.187Z,99312.19
2019-01-13T03:10:45.217Z,99324.77
2019-01-13T03:13:11.240Z,99319.20
2019-01-13T03:15:37.195Z,99321.38
2019-01-13T03:18:03.200Z,99316.84
2019-01-13T03:20:29.151Z,99305.95
2019-01-13T03:22:55.971Z,99309.73
2019-01-13T03:25:23.063Z,99310.98
2019-01-13T03:27:49.124Z,99299.16
2019-01-13T03:30:20.000Z,99296.11
2019-01-13T03:32:46.027Z,99296.78
2019-01-13T03:35:12.811Z,99302.78
2019-01-13T03:37:38.829Z,99306.18
2019-01-13T03:40:08.641Z,99305.36
2019-01-13T03:42:35.092Z,99306.62
2019-01-13T03:45:01.049Z,99314.50
2019-01-13T03:47:27.067Z,99309.31
2019-01-13T03:49:53.017Z,99307.61
2019-01-13T03:52:18.984Z,99318.13
2019-01-13T03:54:45.103Z,99309.52
2019-01-13T03:57:11.406Z,99307.97
2019-01-13T03:59:37.655Z,99308.56
2019-01-13T04:02:03.851Z,99314.17
2019-01-13T04:04:29.816Z,99318.25
2019-01-13T04:06:55.766Z,99312.39
2019-01-13T04:09:21.764Z,99324.59
2019-01-13T04:11:48.748Z,99316.17
2019-01-13T04:14:16.704Z,99314.09
2019-01-13T04:16:42.939Z,99311.63
2019-01-13T04:19:08.898Z,99320.97
2019-01-13T04:21:35.507Z,99317.34
2019-01-13T04:24:01.490Z,99316.95
2019-01-13T04:26:27.514Z,99314.64
2019-01-13T04:28:53.584Z,99309.75
2019-01-13T04:31:26.330Z,99309.70
2019-01-13T04:33:47.439Z,99305.02
2019-01-13T04:36:14.315Z,99307.63
2019-01-13T04:38:40.348Z,99312.06
2019-01-13T04:41:08.224Z,99305.69
2019-01-13T04:43:34.156Z,99309.35
2019-01-13T04:46:00.486Z,99306.45
2019-01-13T04:48:26.433Z,99307.71
2019-01-13T04:50:53.215Z,99314.73
2019-01-13T04:53:19.470Z,99304.23
2019-01-13T04:55:45.405Z,99301.27
2019-01-13T04:58:11.378Z,99299.14
2019-01-13T05:00:37.415Z,99299.48
2019-01-13T05:03:03.860Z,99299.48
2019-01-13T05:05:30.107Z,99289.50
2019-01-13T05:07:58.726Z,99285.35
2019-01-13T05:10:24.671Z,99283.27
2019-01-13T05:12:51.119Z,99281.95
2019-01-13T05:15:17.428Z,99280.25
2019-01-13T05:17:43.694Z,99281.52
2019-01-13T05:20:11.836Z,99283.88
2019-01-13T05:22:38.756Z,99283.36
2019-01-13T05:25:05.834Z,99285.95
2019-01-13T05:27:32.848Z,99284.11
2019-01-13T05:29:58.822Z,99291.07
2019-01-13T05:32:25.335Z,99292.33
2019-01-13T05:34:51.280Z,99296.26
2019-01-13T05:37:18.271Z,99300.85
2019-01-13T05:39:45.188Z,99287.22
2019-01-13T05:42:12.049Z,99293.74
2019-01-13T05:44:38.044Z,99287.06
2019-01-13T05:47:04.071Z,99295.06
2019-01-13T05:49:30.053Z,99291.16
2019-01-13T05:51:56.052Z,99287.00
2019-01-13T05:54:21.999Z,99284.78
2019-01-13T05:56:47.932Z,99282.70
2019-01-13T05:59:13.931Z,99283.08
2019-01-13T06:01:39.881Z,99281.82
2019-01-13T06:04:05.828Z,99279.02
2019-01-13T06:06:32.156Z,99279.60
2019-01-13T06:08:58.088Z,99278.41
2019-01-13T06:11:24.723Z,99278.34
2019-01-13T06:13:50.701Z,99275.83
2019-01-13T06:16:16.681Z,99271.23
2019-01-13T06:18:42.649Z,99267.36
2019-01-13T06:21:08.662Z,99267.36
2019-01-13T06:23:35.822Z,99259.46
2019-01-13T06:26:01.798Z,99260.63
2019-01-13T06:28:27.983Z,99258.11
2019-01-13T06:30:53.924Z,99264.78
2019-01-13T06:33:19.870Z,99265.45
2019-01-13T06:35:45.846Z,99269.67
2019-01-13T06:38:11.824Z,99265.45
2019-01-13T06:40:37.890Z,99256.11
2019-01-13T06:43:03.885Z,99254.35
2019-01-13T06:45:29.836Z,99258.52
2019-01-13T06:47:57.116Z,99266.50
2019-01-13T06:50:23.267Z,99264.86
2019-01-13T06:52:49.528Z,99267.38
2019-01-13T06:55:16.565Z,99265.59
2019-01-13T06:57:42.875Z,99261.70
2019-01-13T07:00:18.240Z,99263.59
2019-01-13T07:02:44.253Z,99262.70
2019-01-13T07:05:10.490Z,99260.57
2019-01-13T07:07:37.580Z,99260.57
2019-01-13T07:10:09.225Z,99256.35
2019-01-13T07:12:35.242Z,99255.97
2019-01-13T07:15:01.198Z,99253.45
2019-01-13T07:17:27.439Z,99256.41
2019-01-13T07:19:53.465Z,99247.16
2019-01-13T07:22:20.685Z,99244.91
2019-01-13T07:24:46.637Z,99237.59
2019-01-13T07:27:12.616Z,99236.78
2019-01-13T07:29:38.560Z,99226.61
2019-01-13T07:32:10.772Z,99226.39
2019-01-13T07:34:32.872Z,99227.05
2019-01-13T07:36:58.813Z,99228.16
2019-01-13T07:39:25.072Z,99227.77
2019-01-13T07:41:51.186Z,99225.03
2019-01-13T07:44:17.598Z,99229.31
2019-01-13T07:46:43.683Z,99230.30
2019-01-13T07:49:10.060Z,99225.79
2019-01-13T07:51:36.003Z,99225.79
2019-01-13T07:54:01.940Z,99221.25
2019-01-13T07:56:28.720Z,99218.30
2019-01-13T07:58:55.210Z,99213.31
2019-01-13T08:01:21.257Z,99225.13
2019-01-13T08:03:47.339Z,99204.66
2019-01-13T08:06:13.276Z,99203.50
2019-01-13T08:08:39.226Z,99210.74
2019-01-13T08:11:05.216Z,99212.81
2019-01-13T08:13:31.169Z,99212.09
2019-01-13T08:15:57.129Z,99206.23
2019-01-13T08:18:23.123Z,99198.23
2019-01-13T08:20:49.077Z,99200.76
2019-01-13T08:23:15.021Z,99197.70
2019-01-13T08:25:41.011Z,99194.36
2019-01-13T08:28:06.974Z,99188.88
2019-01-13T08:30:33.024Z,99175.08
2019-01-13T08:32:59.109Z,99185.09
2019-01-13T08:35:25.163Z,99179.52
2019-01-13T08:37:51.418Z,99178.86
2019-01-13T08:40:19.074Z,99174.14
2019-01-13T08:42:46.576Z,99174.09
2019-01-13T08:45:12.857Z,99173.11
2019-01-13T08:47:39.279Z,99165.87
2019-01-13T08:50:09.048Z,99162.09
2019-01-13T08:52:35.217Z,99160.50
2019-01-13T08:55:01.290Z,99161.16
2019-01-13T08:57:27.520Z,99155.30
2019-01-13T08:59:53.467Z,99151.91
2019-01-13T09:02:19.584Z,99145.11
2019-01-13T09:04:45.540Z,99135.73
2019-01-13T09:07:11.478Z,99136.83
2019-01-13T09:09:37.564Z,99130.03
2019-01-13T09:12:03.728Z,99128.94
2019-01-13T09:14:30.173Z,99120.12
2019-01-13T09:16:56.293Z,99117.81
2019-01-13T09:19:24.170Z,99104.50
2019-01-13T09:21:51.129Z,99107.67
2019-01-13T09:24:17.135Z,99090.50
2019-01-13T09:26:43.090Z,99093.87
2019-01-13T09:29:09.035Z,99079.66
2019-01-13T09:31:37.168Z,99073.30
2019-01-13T09:34:04.019Z,99069.41
2019-01-13T09:36:30.458Z,99065.00
2019-01-13T09:38:57.156Z,99069.07
2019-01-13T09:41:23.102Z,99066.81
2019-01-13T09:43:49.757Z,99061.97
2019-01-13T09:46:15.801Z,99048.91
2019-01-13T09:48:42.227Z,99034.60
2019-01-13T09:51:08.599Z,99035.42
2019-01-13T09:53:34.578Z,99037.19
2019-01-13T09:56:01.032Z,99039.16
2019-01-13T09:58:27.077Z,99027.36
2019-01-13T10:00:53.364Z,99019.80
2019-01-13T10:03:19.526Z,99018.81
2019-01-13T10:05:45.578Z,99003.55
2019-01-13T10:08:11.947Z,98990.23
2019-01-13T10:10:37.995Z,98977.27
2019-01-13T10:13:05.849Z,98974.22
2019-01-13T10:15:32.244Z,98974.47
2019-01-13T10:17:58.403Z,98960.88
2019-01-13T10:20:24.390Z,98959.56
2019-01-13T10:22:50.965Z,98957.42
2019-01-13T10:25:17.003Z,98949.36
2019-01-13T10:27:43.019Z,98945.03
2019-01-13T10:30:21.907Z,98941.80
2019-01-13T10:32:54.641Z,98917.83
2019-01-13T10:35:16.366Z,98919.72
2019-01-13T10:37:42.345Z,98913.48
2019-01-13T10:40:11.993Z,98923.31
2019-01-13T10:42:41.437Z,98897.55
2019-01-13T10:45:10.553Z,98900.44
2019-01-13T10:47:36.484Z,98885.30
2019-01-13T10:50:06.160Z,98882.52
2019-01-13T10:52:32.212Z,98883.41
2019-01-13T10:54:58.302Z,98872.06
2019-01-13T10:57:24.256Z,98868.72
2019-01-13T10:59:50.333Z,98865.45
2019-01-13T11:02:16.393Z,98855.63
2019-01-13T11:04:43.269Z,98849.77
2019-01-13T11:07:09.320Z,98856.00
2019-01-13T11:09:35.266Z,98826.81
2019-01-13T11:12:01.209Z,98824.52
2019-01-13T11:14:27.204Z,98817.91
2019-01-13T11:16:53.161Z,98812.16
2019-01-13T11:19:19.317Z,98803.16
2019-01-13T11:21:45.310Z,98803.16
2019-01-13T11:24:11.267Z,98801.70
2019-01-13T11:26:37.229Z,98790.28
2019-01-13T11:29:03.217Z,98787.12
2019-01-13T11:31:29.501Z,98779.62
2019-01-13T11:33:55.440Z,98776.72
2019-01-13T11:36:21.458Z,98774.00
2019-01-13T11:38:47.691Z,98764.45
2019-01-13T11:41:13.630Z,98767.16
2019-01-13T11:43:39.607Z,98756.44
2019-01-13T11:46:06.630Z,98764.00
2019-01-13T11:48:33.082Z,98747.78
2019-01-13T11:50:59.066Z,98741.67
2019-01-13T11:53:25.812Z,98739.28
2019-01-13T11:55:51.747Z,98727.11
2019-01-13T11:58:18.775Z,98720.72
2019-01-13T12:00:44.798Z,98718.51
2019-01-13T12:03:16.823Z,98714.02
2019-01-13T12:05:39.982Z,98701.09
2019-01-13T12:08:06.340Z,98696.89
2019-01-13T12:10:32.287Z,98687.08
2019-01-13T12:13:02.839Z,98687.27
2019-01-13T12:15:28.922Z,98675.55
2019-01-13T12:17:54.858Z,98677.83
2019-01-13T12:20:23.693Z,98664.03
2019-01-13T12:22:49.835Z,98646.05
2019-01-13T12:25:18.296Z,98660.53
2019-01-13T12:27:44.776Z,98652.48
2019-01-13T12:30:20.066Z,98640.80
2019-01-13T12:32:46.055Z,98641.62
2019-01-13T12:35:12.117Z,98629.65
2019-01-13T12:37:38.672Z,98623.23
2019-01-13T12:40:08.503Z,98620.27
2019-01-13T12:42:36.207Z,98618.75
2019-01-13T12:45:08.032Z,98614.16
2019-01-13T12:47:34.975Z,98610.45
2019-01-13T12:50:01.178Z,98611.38
2019-01-13T12:52:27.166Z,98603.89
2019-01-13T12:54:53.154Z,98591.66
2019-01-13T12:57:19.131Z,98582.46
2019-01-13T12:59:46.447Z,98580.63
2019-01-13T13:02:12.659Z,98577.78
2019-01-13T13:04:39.727Z,98568.39
2019-01-13T13:07:08.591Z,98558.05
2019-01-13T13:09:34.571Z,98555.08
2019-01-13T13:12:02.982Z,98544.06
2019-01-13T13:14:28.928Z,98535.55
2019-01-13T13:16:54.930Z,98529.25
2019-01-13T13:19:20.886Z,98521.89
2019-01-13T13:21:47.155Z,98519.36
2019-01-13T13:24:13.180Z,98511.07
2019-01-13T13:26:40.329Z,98506.03
2019-01-13T13:29:06.582Z,98500.34
2019-01-13T13:31:32.582Z,98486.17
2019-01-13T13:33:58.529Z,98488.13
2019-01-13T13:36:25.993Z,98476.33
2019-01-13T13:38:52.112Z,98473.00
2019-01-13T13:41:18.772Z,98462.22
2019-01-13T13:43:47.988Z,98456.81
2019-01-13T13:46:14.018Z,98446.64
2019-01-13T13:48:40.035Z,98443.19
2019-01-13T13:51:06.178Z,98437.36
2019-01-13T13:53:34.071Z,98441.23
2019-01-13T13:56:00.006Z,98416.58
2019-01-13T13:58:26.567Z,98412.80
2019-01-13T14:00:52.575Z,98417.03
2019-01-13T14:03:18.531Z,98401.53
2019-01-13T14:05:44.475Z,98405.23
2019-01-13T14:08:11.733Z,98398.32
2019-01-13T14:10:37.780Z,98395.08
2019-01-13T14:13:05.265Z,98380.77
2019-01-13T14:15:31.255Z,98372.95
2019-01-13T14:17:58.391Z,98361.61
2019-01-13T14:20:24.440Z,98358.48
2019-01-13T14:22:51.148Z,98351.55
2019-01-13T14:25:17.198Z,98354.16
2019-01-13T14:27:44.146Z,98338.43
2019-01-13T14:30:14.751Z,98338.64
2019-01-13T14:32:40.810Z,98325.88
2019-01-13T14:35:06.965Z,98325.19
2019-01-13T14:37:32.953Z,98313.48
2019-01-13T14:39:59.066Z,98308.11
2019-01-13T14:42:26.035Z,98300.88
2019-01-13T14:44:52.034Z,98291.02
2019-01-13T14:47:17.993Z,98282.31
2019-01-13T14:49:44.919Z,98284.11
2019-01-13T14:52:10.929Z,98272.31
2019-01-13T14:54:37.165Z,98266.59
2019-01-13T14:57:03.309Z,98271.36
2019-01-13T14:59:29.285Z,98250.51
2019-01-13T15:01:55.929Z,98243.84
2019-01-13T15:04:21.885Z,98235.84
2019-01-13T15:06:47.863Z,98235.39
2019-01-13T15:09:13.849Z,98220.72
2019-01-13T15:11:39.835Z,98219.45
2019-01-13T15:14:05.908Z,98220.27
2019-01-13T15:16:32.898Z,98207.03
2019-01-13T15:19:00.224Z,98204.49
2019-01-13T15:21:26.337Z,98199.66
2019-01-13T15:23:52.492Z,98187.82
2019-01-13T15:26:18.591Z,98177.23
2019-01-13T15:28:44.608Z,98173.34
2019-01-13T15:31:10.954Z,98165.88
2019-01-13T15:33:36.919Z,98148.59
2019-01-13T15:36:03.330Z,98141.63
2019-01-13T15:38:29.276Z,98129.12
2019-01-13T15:40:55.500Z,98122.46
2019-01-13T15:43:21.928Z,98108.59
2019-01-13T15:45:48.208Z,98107.47
2019-01-13T15:48:14.158Z,98096.58
2019-01-13T15:50:40.208Z,98087.85
2019-01-13T15:53:06.162Z,98083.84
2019-01-13T15:55:32.122Z,98065.87
2019-01-13T15:57:58.197Z,98067.91
2019-01-13T16:00:48.981Z,98060.35
2019-01-13T16:03:14.980Z,98051.20
2019-01-13T16:05:40.929Z,98038.02
2019-01-13T16:08:07.143Z,98042.13
2019-01-13T16:10:33.633Z,98025.56
2019-01-13T16:12:59.649Z,98024.76
2019-01-13T16:15:33.930Z,98009.37
2019-01-13T16:17:55.097Z,98003.06
2019-01-13T16:20:27.664Z,97988.97
2019-01-13T16:22:54.052Z,97976.12
2019-01-13T16:25:20.141Z,97962.94
2019-01-13T16:27:46.102Z,97967.52
2019-01-13T16:30:15.991Z,97952.09
2019-01-13T16:32:41.978Z,97937.06
2019-01-13T16:35:08.134Z,97940.39
2019-01-13T16:37:34.482Z,97936.39
2019-01-13T16:40:00.591Z,97929.28
2019-01-13T16:42:26.575Z,97939.81
2019-01-13T16:44:52.540Z,97911.88
2019-01-13T16:47:18.526Z,97908.91
2019-01-13T16:49:44.598Z,97902.84
2019-01-13T16:52:11.670Z,97910.75
2019-01-13T16:54:37.648Z,97911.52
2019-01-13T16:57:03.596Z,97889.21
2019-01-13T16:59:29.558Z,97880.75
2019-01-13T17:01:55.586Z,97865.96
2019-01-13T17:04:28.622Z,97859.11
2019-01-13T17:06:49.401Z,97864.05
2019-01-13T17:09:15.443Z,97859.01
2019-01-13T17:11:42.237Z,97862.91
2019-01-13T17:14:08.474Z,97841.37
2019-01-13T17:16:34.461Z,97846.17
2019-01-13T17:19:00.431Z,97843.78
2019-01-13T17:21:26.389Z,97846.88
2019-01-13T17:23:52.428Z,97844.48
2019-01-13T17:26:18.515Z,97845.51
2019-01-13T17:28:44.466Z,97837.05
2019-01-13T17:31:10.991Z,97831.19
2019-01-13T17:33:36.946Z,97823.18
2019-01-13T17:36:03.030Z,97809.67
2019-01-13T17:38:33.649Z,97806.92
2019-01-13T17:40:59.958Z,97812.17
2019-01-13T17:43:28.949Z,97805.19
2019-01-13T17:45:54.987Z,97806.80
2019-01-13T17:48:21.207Z,97788.22
2019-01-13T17:50:47.177Z,97793.96
2019-01-13T17:53:14.072Z,97799.02
2019-01-13T17:55:40.221Z,97791.55
2019-01-13T17:58:06.464Z,97796.48
2019-01-13T18:00:36.891Z,97794.41
2019-01-13T18:03:09.429Z,97804.50
2019-01-13T18:05:35.389Z,97782.85
2019-01-13T18:08:02.267Z,97747.10
2019-01-13T18:10:29.051Z,97754.42
2019-01-13T18:12:55.005Z,97754.29
2019-01-13T18:15:21.172Z,97753.62
2019-01-13T18:17:47.163Z,97754.42
2019-01-13T18:20:20.866Z,97748.12
2019-01-13T18:22:47.548Z,97727.25
2019-01-13T18:25:13.729Z,97727.36
2019-01-13T18:27:40.149Z,97724.86
2019-01-13T18:30:18.330Z,97729.77
2019-01-13T18:32:44.489Z,97727.49
2019-01-13T18:35:13.470Z,97729.77
2019-01-13T18:37:39.470Z,97726.66
2019-01-13T18:40:13.757Z,97725.40
2019-01-13T18:42:40.010Z,97724.59
2019-01-13T18:45:08.011Z,97718.64
2019-01-13T18:47:34.082Z,97718.05
2019-01-13T18:50:00.100Z,97704.98
2019-01-13T18:52:26.224Z,97702.35
2019-01-13T18:54:52.248Z,97704.28
2019-01-13T18:57:19.539Z,97716.89
2019-01-13T18:59:46.986Z,97711.84
2019-01-13T19:02:13.046Z,97702.70
2019-01-13T19:04:39.394Z,97697.77
2019-01-13T19:07:05.374Z,97699.83
2019-01-13T19:09:31.331Z,97690.30
2019-01-13T19:11:57.287Z,97679.31
2019-01-13T19:14:28.393Z,97684.11
2019-01-13T19:16:55.939Z,97687.33
2019-01-13T19:19:21.890Z,97685.13
2019-01-13T19:21:47.916Z,97674.02
2019-01-13T19:24:14.092Z,97682.14
2019-01-13T19:26:40.349Z,97674.89
2019-01-13T19:29:06.352Z,97665.50
2019-01-13T19:31:32.300Z,97666.76
2019-01-13T19:33:58.420Z,97664.69
2019-01-13T19:36:24.651Z,97666.41
2019-01-13T19:38:50.614Z,97665.91
2019-01-13T19:41:17.111Z,97661.87
2019-01-13T19:43:43.104Z,97667.38
2019-01-13T19:46:09.075Z,97654.87
2019-01-13T19:48:35.049Z,97665.30
2019-01-13T19:51:01.035Z,97664.50
2019-01-13T19:53:26.995Z,97659.11
2019-01-13T19:55:55.418Z,97652.03
2019-01-13T19:58:22.823Z,97643.66
2019-01-13T20:00:48.892Z,97651.68
2019-01-13T20:03:15.757Z,97646.04
2019-01-13T20:05:41.769Z,97645.13
2019-01-13T20:08:08.190Z,97646.39
2019-01-13T20:10:36.096Z,97637.20
2019-01-13T20:13:02.121Z,97638.47
2019-01-13T20:15:28.706Z,97640.19
2019-01-13T20:17:54.963Z,97640.67
2019-01-13T20:20:22.427Z,97630.91
2019-01-13T20:22:48.826Z,97633.31
2019-01-13T20:25:16.465Z,97631.05
2019-01-13T20:27:42.864Z,97624.84
2019-01-13T20:30:15.394Z,97623.02
2019-01-13T20:32:41.658Z,97622.17
2019-01-13T20:35:07.766Z,97626.76
2019-01-13T20:37:33.711Z,97620.10
2019-01-13T20:39:59.678Z,97616.77
2019-01-13T20:42:25.905Z,97624.67
2019-01-13T20:44:51.860Z,97614.34
2019-01-13T20:47:19.725Z,97614.14
2019-01-13T20:49:45.724Z,97613.43
2019-01-13T20:52:11.675Z,97590.36
2019-01-13T20:54:38.927Z,97607.78
2019-01-13T20:57:05.918Z,97604.80
2019-01-13T20:59:31.921Z,97597.67
2019-01-13T21:01:59.003Z,97602.92
2019-01-13T21:04:25.053Z,97596.25
2019-01-13T21:06:51.962Z,97589.48
2019-01-13T21:09:19.835Z,97586.90
2019-01-13T21:11:45.999Z,97582.41
2019-01-13T21:14:12.945Z,97573.82
2019-01-13T21:16:38.907Z,97574.54
2019-01-13T21:19:06.296Z,97574.11
2019-01-13T21:21:32.598Z,97577.14
2019-01-13T21:23:59.811Z,97573.15
2019-01-13T21:26:25.888Z,97567.76
2019-01-13T21:28:51.851Z,97574.50
2019-01-13T21:31:17.806Z,97566.47
2019-01-13T21:33:44.621Z,97567.96
2019-01-13T21:36:13.030Z,97559.07
2019-01-13T21:38:38.983Z,97554.94
2019-01-13T21:41:05.180Z,97556.00
2019-01-13T21:43:31.146Z,97551.87
2019-01-13T21:45:57.103Z,97547.37
2019-01-13T21:48:23.140Z,97548.63
2019-01-13T21:50:49.732Z,97547.23
2019-01-13T21:53:16.645Z,97551.36
2019-01-13T21:55:42.627Z,97551.56
2019-01-13T21:58:08.642Z,97551.91
2019-01-13T22:00:34.806Z,97548.70
2019-01-13T22:03:01.519Z,97549.09
2019-01-13T22:05:27.581Z,97551.08
2019-01-13T22:07:53.525Z,97553.37
2019-01-13T22:10:21.487Z,97550.78
2019-01-13T22:12:47.902Z,97550.30
2019-01-13T22:15:15.462Z,97537.02
2019-01-13T22:17:41.627Z,97545.20
2019-01-13T22:20:10.683Z,97544.70
2019-01-13T22:22:36.827Z,97538.34
2019-01-13T22:25:05.035Z,97542.23
2019-01-13T22:27:31.176Z,97540.17
2019-01-13T22:29:57.189Z,97539.11
2019-01-13T22:32:23.192Z,97534.78
2019-01-13T22:34:49.338Z,97538.25
2019-01-13T22:37:15.451Z,97530.33
2019-01-13T22:39:41.457Z,97522.71
2019-01-13T22:42:07.409Z,97539.59
2019-01-13T22:44:33.350Z,97523.42
2019-01-13T22:46:59.324Z,97520.36
2019-01-13T22:49:25.275Z,97534.88
2019-01-13T22:51:51.227Z,97532.84
2019-01-13T22:54:17.361Z,97525.98
2019-01-13T22:56:43.312Z,97523.46
2019-01-13T22:59:09.341Z,97519.38
2019-01-13T23:01:36.924Z,97519.38
2019-01-13T23:04:03.177Z,97526.84
2019-01-13T23:06:29.429Z,97526.63
2019-01-13T23:08:55.439Z,97526.63
2019-01-13T23:11:21.390Z,97526.17
2019-01-13T23:13:47.340Z,97524.98
2019-01-13T23:16:13.956Z,97523.40
2019-01-13T23:18:39.961Z,97532.48
2019-01-13T23:21:06.503Z,97527.66
2019-01-13T23:23:32.497Z,97530.18
2019-01-13T23:25:58.632Z,97523.56
2019-01-13T23:28:25.053Z,97538.00
2019-01-13T23:30:51.042Z,97526.65
2019-01-13T23:33:16.988Z,97532.15
2019-01-13T23:35:43.349Z,97534.56
2019-01-13T23:38:09.773Z,97535.91
2019-01-13T23:40:38.586Z,97533.48
2019-01-13T23:43:04.543Z,97535.06
2019-01-13T23:45:31.403Z,97538.05
2019-01-13T23:47:59.294Z,97533.69
2019-01-13T23:50:25.237Z,97538.14
2019-01-13T23:52:51.911Z,97538.03
2019-01-13T23:55:18.705Z,97535.70
2019-01-13T23:57:44.764Z,97535.36
